Confluence, Kentucky
Current Conditions -  °F | °C
As of 3:53 PM on Thursday 23 Oct 2014 (Local Time) from KJKL Reporting Station
Clear Clear  
Wind Chill: 58°   Ceiling: Unl
Heat Index: 58°   Visibility: 10mi
Dew Point: 39°   Wind: 0mph
Humidity: 49%   Direction: NA
Pressure: 30.14"   Gusts: NA
Location:  37.26°N, 83.38°W
Report Text: KJKL 231953Z AUTO 00000KT 10SM CLR 14/04 A3014 RMK AO2 SLP205 T01440039
Loading
Personal Weather Stations






























Interactive Weather Map
Tropical Storm Tracking
New forecast layout! Learn more

10-Day Weather Forecast

Advertisements
Track Severe Weather on mobile